createdAt,value
2023-07-17T00:01:19.555Z,99680.88
2023-07-17T00:03:48.948Z,99691.00
2023-07-17T00:06:18.227Z,99686.28
2023-07-17T00:08:48.776Z,99687.38
2023-07-17T00:11:18.320Z,99685.78
2023-07-17T00:13:50.876Z,99687.97
2023-07-17T00:16:22.309Z,99692.28
2023-07-17T00:18:51.488Z,99686.19
2023-07-17T00:21:21.963Z,99692.88
2023-07-17T00:23:52.469Z,99692.88
2023-07-17T00:26:22.161Z,99700.34
2023-07-17T00:28:51.291Z,99688.75
2023-07-17T00:31:20.794Z,99691.69
2023-07-17T00:33:50.107Z,99683.53
2023-07-17T00:36:19.266Z,99684.16
2023-07-17T00:38:48.559Z,99686.00
2023-07-17T00:41:19.440Z,99681.28
2023-07-17T00:43:48.780Z,99675.78
2023-07-17T00:46:18.537Z,99684.81
2023-07-17T00:48:48.255Z,99684.34
2023-07-17T00:51:17.764Z,99696.00
2023-07-17T00:53:47.172Z,99699.22
2023-07-17T00:56:16.393Z,99692.66
2023-07-17T00:58:48.268Z,99687.94
2023-07-17T01:01:17.924Z,99690.13
2023-07-17T01:03:47.782Z,99683.22
2023-07-17T01:06:16.937Z,99688.81
2023-07-17T01:08:46.121Z,99695.19
2023-07-17T01:11:16.542Z,99694.69
2023-07-17T01:13:48.753Z,99690.75
2023-07-17T01:16:18.070Z,99694.78
2023-07-17T01:18:50.315Z,99696.16
2023-07-17T01:21:23.824Z,99699.09
2023-07-17T01:23:55.796Z,99703.41
2023-07-17T01:26:25.218Z,99699.66
2023-07-17T01:28:54.500Z,99705.53
2023-07-17T01:31:23.685Z,99699.47
2023-07-17T01:33:52.887Z,99688.16
2023-07-17T01:36:22.021Z,99698.75
2023-07-17T01:38:51.166Z,99700.94
2023-07-17T01:41:24.272Z,99696.69
2023-07-17T01:43:53.637Z,99704.16
2023-07-17T01:46:22.808Z,99704.16
2023-07-17T01:48:52.098Z,99700.22
2023-07-17T01:51:21.307Z,99706.59
2023-07-17T01:53:51.006Z,99706.88
2023-07-17T01:56:20.128Z,99698.44
2023-07-17T01:58:50.683Z,99700.59
2023-07-17T02:01:20.133Z,99705.41
2023-07-17T02:03:49.491Z,99702.53
2023-07-17T02:06:19.420Z,99695.41
2023-07-17T02:08:48.570Z,99696.44
2023-07-17T02:11:17.842Z,99702.34
2023-07-17T02:13:47.067Z,99699.19
2023-07-17T02:16:17.769Z,99690.75
2023-07-17T02:18:47.048Z,99703.50
2023-07-17T02:21:16.677Z,99703.28
2023-07-17T02:23:46.401Z,99703.84
2023-07-17T02:26:15.704Z,99706.00
2023-07-17T02:28:44.809Z,99704.47
2023-07-17T02:31:14.057Z,99709.50
2023-07-17T02:33:44.742Z,99711.63
2023-07-17T02:36:13.893Z,99708.50
2023-07-17T02:38:47.177Z,99714.38
2023-07-17T02:41:17.635Z,99714.66
2023-07-17T02:43:46.996Z,99714.94
2023-07-17T02:46:16.163Z,99730.00
2023-07-17T02:48:46.728Z,99728.72
2023-07-17T02:51:16.254Z,99732.47
2023-07-17T02:53:45.647Z,99733.53
2023-07-17T02:56:14.827Z,99742.53
2023-07-17T02:58:44.680Z,99740.16
2023-07-17T03:01:13.893Z,99748.38
2023-07-17T03:03:43.041Z,99751.63
2023-07-17T03:06:13.636Z,99753.47
2023-07-17T03:08:42.761Z,99752.69
2023-07-17T03:11:11.896Z,99749.56
2023-07-17T03:13:41.954Z,99745.59
2023-07-17T03:16:11.173Z,99753.81
2023-07-17T03:18:40.361Z,99746.47
2023-07-17T03:21:09.593Z,99754.19
2023-07-17T03:23:40.103Z,99753.38
2023-07-17T03:26:09.234Z,99759.25
2023-07-17T03:28:39.050Z,99753.19
2023-07-17T03:31:09.665Z,99753.75
2023-07-17T03:33:40.910Z,99747.47
2023-07-17T03:36:10.107Z,99749.31
2023-07-17T03:38:42.082Z,99756.75
2023-07-17T03:41:11.338Z,99755.44
2023-07-17T03:43:40.664Z,99759.47
2023-07-17T03:46:10.314Z,99761.28
2023-07-17T03:48:39.584Z,99764.22
2023-07-17T03:51:11.396Z,99759.53
2023-07-17T03:53:43.092Z,99775.41
2023-07-17T03:56:12.361Z,99781.44
2023-07-17T03:58:41.828Z,99783.59
2023-07-17T04:01:11.547Z,99771.72
2023-07-17T04:03:47.528Z,99768.31
2023-07-17T04:06:18.248Z,99771.72
2023-07-17T04:08:48.717Z,99775.72
2023-07-17T04:11:18.284Z,99774.13
2023-07-17T04:13:53.648Z,99777.84
2023-07-17T04:16:26.599Z,99766.25
2023-07-17T04:18:56.711Z,99776.31
2023-07-17T04:21:25.914Z,99775.81
2023-07-17T04:23:56.416Z,99782.44
2023-07-17T04:26:35.014Z,99776.16
2023-07-17T04:29:04.313Z,99793.59
2023-07-17T04:31:34.061Z,99798.88
2023-07-17T04:34:04.068Z,99799.16
2023-07-17T04:36:33.224Z,99799.94
2023-07-17T04:39:05.774Z,99792.78
2023-07-17T04:41:35.409Z,99792.00
2023-07-17T04:44:04.736Z,99798.38
2023-07-17T04:46:34.055Z,99801.03
2023-07-17T04:49:03.717Z,99806.31
2023-07-17T04:51:33.891Z,99810.00
2023-07-17T04:54:05.299Z,99813.72
2023-07-17T04:56:34.631Z,99810.28
2023-07-17T04:59:07.510Z,99811.06
2023-07-17T05:01:37.021Z,99807.34
2023-07-17T05:04:06.610Z,99806.06
2023-07-17T05:06:36.513Z,99807.91
2023-07-17T05:09:08.014Z,99809.00
2023-07-17T05:11:39.008Z,99807.41
2023-07-17T05:14:08.060Z,99814.84
2023-07-17T05:16:38.720Z,99805.81
2023-07-17T05:19:07.758Z,99812.72
2023-07-17T05:21:41.917Z,99811.63
2023-07-17T05:24:13.379Z,99809.00
2023-07-17T05:26:42.534Z,99811.34
2023-07-17T05:29:11.601Z,99815.84
2023-07-17T05:31:41.277Z,99824.28
2023-07-17T05:34:10.361Z,99819.81
2023-07-17T05:36:40.314Z,99815.28
2023-07-17T05:39:09.556Z,99820.81
2023-07-17T05:41:40.072Z,99811.81
2023-07-17T05:44:11.415Z,99822.63
2023-07-17T05:46:40.674Z,99819.97
2023-07-17T05:49:11.679Z,99822.63
2023-07-17T05:51:40.681Z,99822.63
2023-07-17T05:54:14.256Z,99821.03
2023-07-17T05:56:44.605Z,99816.25
2023-07-17T05:59:13.676Z,99821.25
2023-07-17T06:01:42.980Z,99828.34
2023-07-17T06:04:12.667Z,99822.50
2023-07-17T06:06:41.735Z,99818.25
2023-07-17T06:09:10.814Z,99825.34
2023-07-17T06:11:39.875Z,99824.47
2023-07-17T06:14:10.289Z,99824.72
2023-07-17T06:16:39.352Z,99829.44
2023-07-17T06:19:11.588Z,99834.16
2023-07-17T06:21:40.637Z,99829.09
2023-07-17T06:24:09.869Z,99817.94
2023-07-17T06:26:38.929Z,99828.97
2023-07-17T06:29:10.831Z,99833.69
2023-07-17T06:31:39.908Z,99829.41
2023-07-17T06:34:08.934Z,99825.91
2023-07-17T06:36:37.999Z,99826.13
2023-07-17T06:39:07.080Z,99823.41
2023-07-17T06:41:36.150Z,99822.84
2023-07-17T06:44:05.618Z,99824.94
2023-07-17T06:46:36.185Z,99816.94
2023-07-17T06:49:08.817Z,99814.22
2023-07-17T06:51:37.979Z,99820.53
2023-07-17T06:54:07.017Z,99808.28
2023-07-17T06:56:36.313Z,99813.53
2023-07-17T06:59:05.687Z,99819.72
2023-07-17T07:01:36.217Z,99815.34
2023-07-17T07:04:05.653Z,99818.72
2023-07-17T07:06:34.782Z,99821.88
2023-07-17T07:09:04.335Z,99816.75
2023-07-17T07:11:33.455Z,99827.78
2023-07-17T07:14:02.493Z,99826.63
2023-07-17T07:16:31.599Z,99831.09
2023-07-17T07:19:02.032Z,99826.50
2023-07-17T07:21:34.117Z,99832.78
2023-07-17T07:24:04.307Z,99830.06
2023-07-17T07:26:34.869Z,99826.22
2023-07-17T07:29:03.924Z,99828.81
2023-07-17T07:31:33.079Z,99833.72
2023-07-17T07:34:03.499Z,99834.13
2023-07-17T07:36:32.575Z,99837.47
2023-07-17T07:39:02.015Z,99836.81
2023-07-17T07:41:31.078Z,99847.03
2023-07-17T07:44:00.138Z,99842.94
2023-07-17T07:46:29.781Z,99838.03
2023-07-17T07:48:58.863Z,99843.75
2023-07-17T07:51:29.314Z,99852.09
2023-07-17T07:53:58.842Z,99854.16
2023-07-17T07:56:28.179Z,99855.63
2023-07-17T07:58:57.243Z,99860.84
2023-07-17T08:01:26.348Z,99861.81
2023-07-17T08:03:55.463Z,99869.69
2023-07-17T08:06:24.781Z,99860.03
2023-07-17T08:08:58.192Z,99855.72
2023-07-17T08:11:27.343Z,99854.56
2023-07-17T08:13:56.447Z,99858.69
2023-07-17T08:16:25.558Z,99857.50
2023-07-17T08:18:54.653Z,99852.59
2023-07-17T08:21:23.831Z,99854.53
2023-07-17T08:23:55.216Z,99854.91
2023-07-17T08:26:28.945Z,99856.84
2023-07-17T08:29:02.098Z,99850.34
2023-07-17T08:31:34.661Z,99855.25
2023-07-17T08:34:05.215Z,99856.41
2023-07-17T08:36:37.223Z,99851.97
2023-07-17T08:39:06.689Z,99858.13
2023-07-17T08:41:38.259Z,99854.75
2023-07-17T08:44:07.558Z,99859.63
2023-07-17T08:46:37.062Z,99850.16
2023-07-17T08:49:06.946Z,99843.31
2023-07-17T08:51:36.055Z,99843.19
2023-07-17T08:54:19.955Z,99842.81
2023-07-17T08:57:05.584Z,99843.16
2023-07-17T08:59:36.340Z,99835.03
2023-07-17T09:02:06.777Z,99843.34
2023-07-17T09:04:36.484Z,99836.50
2023-07-17T09:07:06.231Z,99836.06
2023-07-17T09:09:35.276Z,99829.50
2023-07-17T09:12:10.524Z,99826.44
2023-07-17T09:14:41.296Z,99822.34
2023-07-17T09:17:12.058Z,99829.91
2023-07-17T09:19:42.925Z,99832.75
2023-07-17T09:22:12.560Z,99828.88
2023-07-17T09:24:41.749Z,99832.47
2023-07-17T09:27:12.179Z,99831.06
2023-07-17T09:29:43.673Z,99831.25
2023-07-17T09:32:21.047Z,99829.84
2023-07-17T09:34:56.454Z,99827.63
2023-07-17T09:37:32.110Z,99831.56
2023-07-17T09:40:01.686Z,99823.09
2023-07-17T09:42:32.254Z,99832.03
2023-07-17T09:45:05.809Z,99820.28
2023-07-17T09:47:36.030Z,99826.09
2023-07-17T09:50:05.656Z,99823.44
2023-07-17T09:52:34.926Z,99824.97
2023-07-17T09:55:04.356Z,99819.66
2023-07-17T09:57:38.512Z,99825.47
2023-07-17T10:00:13.056Z,99821.69
2023-07-17T10:02:47.984Z,99821.41
2023-07-17T10:05:17.522Z,99828.28
2023-07-17T10:07:50.138Z,99829.56
2023-07-17T10:10:19.382Z,99824.69
2023-07-17T10:12:50.619Z,99820.66
2023-07-17T10:15:19.951Z,99818.75
2023-07-17T10:17:57.798Z,99834.09
2023-07-17T10:20:27.422Z,99826.13
2023-07-17T10:22:56.512Z,99827.06
2023-07-17T10:25:28.613Z,99820.66
2023-07-17T10:28:01.392Z,99823.81
2023-07-17T10:30:33.377Z,99823.81
2023-07-17T10:33:08.264Z,99817.84
2023-07-17T10:35:49.997Z,99811.91
2023-07-17T10:38:20.952Z,99812.53
2023-07-17T10:40:50.018Z,99829.00
2023-07-17T10:43:22.171Z,99818.34
2023-07-17T10:45:51.247Z,99815.69
2023-07-17T10:48:20.272Z,99816.63
2023-07-17T10:50:52.263Z,99808.31
2023-07-17T10:53:22.251Z,99809.06
2023-07-17T10:55:51.526Z,99819.41
2023-07-17T10:58:23.495Z,99814.25
2023-07-17T11:00:53.269Z,99813.97
2023-07-17T11:03:27.473Z,99808.78
2023-07-17T11:05:58.234Z,99801.25
2023-07-17T11:08:28.489Z,99801.75
2023-07-17T11:10:57.570Z,99811.28
2023-07-17T11:13:33.586Z,99811.75
2023-07-17T11:16:10.045Z,99809.06
2023-07-17T11:18:57.830Z,99803.00
2023-07-17T11:21:28.717Z,99816.00
2023-07-17T11:23:59.567Z,99803.13
2023-07-17T11:26:32.382Z,99803.91
2023-07-17T11:29:04.255Z,99812.72
2023-07-17T11:31:35.678Z,99810.03
2023-07-17T11:34:08.311Z,99810.19
2023-07-17T11:36:42.974Z,99810.19
2023-07-17T11:39:13.524Z,99804.06
2023-07-17T11:41:49.720Z,99794.34
2023-07-17T11:44:25.374Z,99789.03
2023-07-17T11:46:56.077Z,99794.81
2023-07-17T11:49:26.888Z,99799.84
2023-07-17T11:51:57.228Z,99795.44
2023-07-17T11:54:30.827Z,99792.94
2023-07-17T11:57:01.407Z,99793.38
2023-07-17T11:59:32.255Z,99790.13
2023-07-17T12:02:04.465Z,99785.25
2023-07-17T12:04:41.698Z,99784.63
2023-07-17T12:07:28.644Z,99775.53
2023-07-17T12:10:02.054Z,99787.75
2023-07-17T12:12:37.252Z,99779.44
2023-07-17T12:15:26.589Z,99780.41
2023-07-17T12:18:01.297Z,99778.50
2023-07-17T12:20:36.489Z,99772.53
2023-07-17T12:23:07.904Z,99763.91
2023-07-17T12:25:43.351Z,99781.47
2023-07-17T12:28:13.649Z,99773.94
2023-07-17T12:30:46.207Z,99770.63
2023-07-17T12:33:18.241Z,99775.66
2023-07-17T12:35:47.415Z,99774.53
2023-07-17T12:38:16.444Z,99772.03
2023-07-17T12:40:45.456Z,99772.03
2023-07-17T12:43:14.482Z,99780.47
2023-07-17T12:45:44.952Z,99774.19
2023-07-17T12:48:16.396Z,99771.22
2023-07-17T12:50:45.598Z,99777.78
2023-07-17T12:53:14.653Z,99765.69
2023-07-17T12:55:44.513Z,99762.38
2023-07-17T12:58:13.696Z,99769.75
2023-07-17T13:00:42.811Z,99772.91
2023-07-17T13:03:13.378Z,99768.03
2023-07-17T13:05:42.566Z,99764.72
2023-07-17T13:08:11.792Z,99767.88
2023-07-17T13:10:40.872Z,99766.44
2023-07-17T13:13:09.901Z,99764.56
2023-07-17T13:15:38.958Z,99754.66
2023-07-17T13:18:08.059Z,99765.00
2023-07-17T13:20:38.504Z,99759.34
2023-07-17T13:23:07.674Z,99769.72
2023-07-17T13:25:37.215Z,99771.28
2023-07-17T13:28:07.035Z,99768.28
2023-07-17T13:30:36.118Z,99758.41
2023-07-17T13:33:05.384Z,99763.09
2023-07-17T13:35:34.514Z,99763.91
2023-07-17T13:38:04.924Z,99764.66
2023-07-17T13:40:34.077Z,99765.44
2023-07-17T13:43:03.320Z,99762.47
2023-07-17T13:45:32.448Z,99767.47
2023-07-17T13:48:01.499Z,99758.03
2023-07-17T13:50:30.885Z,99767.59
2023-07-17T13:53:00.526Z,99769.63
2023-07-17T13:55:31.180Z,99769.19
2023-07-17T13:58:00.496Z,99768.06
2023-07-17T14:00:29.859Z,99752.84
2023-07-17T14:03:00.566Z,99764.28
2023-07-17T14:05:29.687Z,99764.28
2023-07-17T14:08:00.944Z,99768.88
2023-07-17T14:10:31.439Z,99769.63
2023-07-17T14:13:00.778Z,99762.09
2023-07-17T14:15:29.851Z,99770.09
2023-07-17T14:17:59.085Z,99770.56
2023-07-17T14:20:28.171Z,99782.34
2023-07-17T14:22:57.293Z,99774.34
2023-07-17T14:25:26.364Z,99769.00
2023-07-17T14:27:56.808Z,99764.13
2023-07-17T14:30:25.900Z,99756.88
2023-07-17T14:32:55.266Z,99758.47
2023-07-17T14:35:24.619Z,99761.13
2023-07-17T14:37:53.655Z,99754.22
2023-07-17T14:40:23.431Z,99747.63
2023-07-17T14:42:54.400Z,99750.78
2023-07-17T14:45:24.926Z,99740.09
2023-07-17T14:47:54.028Z,99753.44
2023-07-17T14:50:23.492Z,99750.31
2023-07-17T14:52:52.569Z,99752.19
2023-07-17T14:55:22.351Z,99747.63
2023-07-17T14:57:51.914Z,99738.84
2023-07-17T15:00:23.504Z,99725.50
2023-07-17T15:02:54.297Z,99741.50
2023-07-17T15:05:23.637Z,99738.06
2023-07-17T15:07:55.908Z,99732.75
2023-07-17T15:10:24.962Z,99741.50
2023-07-17T15:12:54.016Z,99744.97
2023-07-17T15:15:23.585Z,99747.63
2023-07-17T15:17:54.568Z,99743.84
2023-07-17T15:20:23.864Z,99740.75
2023-07-17T15:22:52.941Z,99739.16
2023-07-17T15:25:22.214Z,99747.16
2023-07-17T15:27:51.293Z,99749.06
2023-07-17T15:30:20.705Z,99753.63
2023-07-17T15:32:49.781Z,99754.41
2023-07-17T15:35:20.210Z,99749.84
2023-07-17T15:37:50.219Z,99751.41
2023-07-17T15:40:19.696Z,99752.97
2023-07-17T15:42:48.966Z,99752.19
2023-07-17T15:45:22.917Z,99750.00
2023-07-17T15:47:52.444Z,99746.09
2023-07-17T15:50:22.827Z,99749.84
2023-07-17T15:52:51.866Z,99757.84
2023-07-17T15:55:22.658Z,99758.19
2023-07-17T15:57:54.060Z,99759.28
2023-07-17T16:00:23.229Z,99759.59
2023-07-17T16:02:52.415Z,99753.63
2023-07-17T16:05:23.344Z,99751.41
2023-07-17T16:07:52.586Z,99768.53
2023-07-17T16:10:21.785Z,99765.84
2023-07-17T16:12:50.840Z,99760.50
2023-07-17T16:15:19.917Z,99763.66
2023-07-17T16:17:50.231Z,99764.44
2023-07-17T16:20:19.489Z,99759.44
2023-07-17T16:22:49.907Z,99767.88
2023-07-17T16:25:19.052Z,99766.66
2023-07-17T16:27:48.259Z,99767.75
2023-07-17T16:30:17.583Z,99770.75
2023-07-17T16:32:46.696Z,99768.06
2023-07-17T16:35:15.849Z,99765.41
2023-07-17T16:37:44.880Z,99762.75
2023-07-17T16:40:15.425Z,99766.53
2023-07-17T16:42:44.515Z,99766.53
2023-07-17T16:45:16.782Z,99769.94
2023-07-17T16:47:46.030Z,99767.28
2023-07-17T16:50:15.116Z,99762.25
2023-07-17T16:52:44.246Z,99769.19
2023-07-17T16:55:15.124Z,99766.84
2023-07-17T16:57:44.221Z,99768.72
2023-07-17T17:00:16.229Z,99776.25
2023-07-17T17:02:45.449Z,99771.22
2023-07-17T17:05:14.507Z,99781.16
2023-07-17T17:07:43.592Z,99785.25
2023-07-17T17:10:14.581Z,99782.91
2023-07-17T17:12:43.619Z,99787.13
2023-07-17T17:15:12.630Z,99788.22
2023-07-17T17:17:42.150Z,99787.13
2023-07-17T17:20:15.328Z,99788.22
2023-07-17T17:22:44.405Z,99798.13
2023-07-17T17:25:14.826Z,99797.31
2023-07-17T17:27:43.975Z,99794.66
2023-07-17T17:30:13.545Z,99795.75
2023-07-17T17:32:42.588Z,99806.28
2023-07-17T17:35:11.679Z,99805.03
2023-07-17T17:37:41.583Z,99804.59
2023-07-17T17:40:11.677Z,99804.91
2023-07-17T17:42:42.191Z,99805.22
2023-07-17T17:45:15.319Z,99813.69
2023-07-17T17:47:44.376Z,99806.31
2023-07-17T17:50:13.858Z,99802.56
2023-07-17T17:52:42.872Z,99796.44
2023-07-17T17:55:12.090Z,99804.44
2023-07-17T17:57:42.494Z,99807.44
2023-07-17T18:00:13.324Z,99807.75
2023-07-17T18:02:51.281Z,99810.72
2023-07-17T18:05:21.283Z,99811.84
2023-07-17T18:07:50.384Z,99808.66
2023-07-17T18:10:19.517Z,99808.66
2023-07-17T18:12:49.889Z,99823.13
2023-07-17T18:15:19.067Z,99823.91
2023-07-17T18:17:48.174Z,99825.78
2023-07-17T18:20:17.373Z,99818.88
2023-07-17T18:22:49.225Z,99826.72
2023-07-17T18:25:18.297Z,99831.31
2023-07-17T18:27:47.365Z,99829.72
2023-07-17T18:30:17.990Z,99830.81
2023-07-17T18:32:47.067Z,99826.13
2023-07-17T18:35:16.182Z,99831.78
2023-07-17T18:37:45.282Z,99835.88
2023-07-17T18:40:16.345Z,99839.63
2023-07-17T18:42:45.337Z,99834.63
2023-07-17T18:45:14.376Z,99836.50
2023-07-17T18:47:44.847Z,99837.91
2023-07-17T18:50:13.959Z,99845.13
2023-07-17T18:52:42.968Z,99846.56
2023-07-17T18:55:12.144Z,99845.00
2023-07-17T18:57:41.134Z,99860.81
2023-07-17T19:00:13.083Z,99859.28
2023-07-17T19:02:42.123Z,99861.44
2023-07-17T19:05:12.615Z,99867.91
2023-07-17T19:07:41.710Z,99872.75
2023-07-17T19:10:11.121Z,99873.84
2023-07-17T19:12:40.225Z,99881.41
2023-07-17T19:15:11.578Z,99881.41
2023-07-17T19:17:43.645Z,99879.38
2023-07-17T19:20:14.560Z,99887.66
2023-07-17T19:22:43.674Z,99895.19
2023-07-17T19:25:13.178Z,99902.41
2023-07-17T19:27:42.694Z,99896.59
2023-07-17T19:30:13.382Z,99900.38
2023-07-17T19:32:44.580Z,99901.00
2023-07-17T19:35:15.117Z,99905.53
2023-07-17T19:37:44.926Z,99903.78
2023-07-17T19:40:14.188Z,99912.88
2023-07-17T19:42:45.626Z,99918.03
2023-07-17T19:45:15.008Z,99915.69
2023-07-17T19:47:44.254Z,99927.44
2023-07-17T19:50:14.891Z,99927.44
2023-07-17T19:52:44.953Z,99927.00
2023-07-17T19:55:16.308Z,99927.63
2023-07-17T19:57:47.516Z,99932.78
2023-07-17T20:00:17.144Z,99932.78
2023-07-17T20:02:48.065Z,99929.66
2023-07-17T20:05:18.561Z,99937.16
2023-07-17T20:07:47.632Z,99938.56
2023-07-17T20:10:16.908Z,99942.31
2023-07-17T20:12:45.980Z,99936.84
2023-07-17T20:15:15.023Z,99943.59
2023-07-17T20:17:44.098Z,99944.19
2023-07-17T20:20:14.740Z,99942.28
2023-07-17T20:22:45.312Z,99949.03
2023-07-17T20:25:14.495Z,99956.88
2023-07-17T20:27:43.698Z,99956.72
2023-07-17T20:30:14.934Z,99955.44
2023-07-17T20:32:44.375Z,99962.19
2023-07-17T20:35:27.409Z,99967.03
2023-07-17T20:38:00.847Z,99971.41
2023-07-17T20:40:31.675Z,99970.88
2023-07-17T20:43:03.773Z,99981.06
2023-07-17T20:45:34.678Z,99976.66
2023-07-17T20:48:07.471Z,99979.94
2023-07-17T20:50:36.684Z,99981.66
2023-07-17T20:53:10.074Z,99985.22
2023-07-17T20:55:40.732Z,99988.50
2023-07-17T20:58:09.757Z,99989.91
2023-07-17T21:00:38.801Z,99996.66
2023-07-17T21:03:08.054Z,99994.09
2023-07-17T21:05:41.858Z,100000.81
2023-07-17T21:08:14.632Z,100008.63
2023-07-17T21:10:43.661Z,100010.34
2023-07-17T21:13:12.697Z,100015.94
2023-07-17T21:15:41.706Z,100020.03
2023-07-17T21:18:10.790Z,100014.50
2023-07-17T21:20:42.984Z,100011.69
2023-07-17T21:23:12.298Z,100020.22
2023-07-17T21:25:42.708Z,100014.75
2023-07-17T21:28:11.901Z,100015.34
2023-07-17T21:30:41.031Z,100021.59
2023-07-17T21:33:10.015Z,100025.94
2023-07-17T21:35:41.969Z,100027.59
2023-07-17T21:38:11.913Z,100034.31
2023-07-17T21:40:42.353Z,100033.38
2023-07-17T21:43:11.366Z,100031.31
2023-07-17T21:45:40.437Z,100028.47
2023-07-17T21:48:09.488Z,100030.13
2023-07-17T21:50:38.873Z,100044.06
2023-07-17T21:53:15.122Z,100043.88
2023-07-17T21:55:45.598Z,100051.66
2023-07-17T21:58:14.644Z,100037.38
2023-07-17T22:00:43.751Z,100043.31
2023-07-17T22:03:12.941Z,100045.50
2023-07-17T22:05:42.730Z,100047.16
2023-07-17T22:08:11.918Z,100061.63
2023-07-17T22:10:40.997Z,100057.69
2023-07-17T22:13:16.040Z,100066.56
2023-07-17T22:15:46.788Z,100059.78
2023-07-17T22:18:28.780Z,100060.88
2023-07-17T22:20:59.392Z,100068.47
2023-07-17T22:23:29.028Z,100073.28
2023-07-17T22:25:58.187Z,100072.31
2023-07-17T22:28:28.622Z,100070.22
2023-07-17T22:30:57.745Z,100075.66
2023-07-17T22:33:26.801Z,100085.28
2023-07-17T22:35:56.586Z,100095.72
2023-07-17T22:38:25.622Z,100089.44
2023-07-17T22:40:54.695Z,100098.00
2023-07-17T22:43:23.876Z,100094.31
2023-07-17T22:45:57.366Z,100089.59
2023-07-17T22:48:29.077Z,100095.50
2023-07-17T22:50:59.783Z,100091.06
2023-07-17T22:53:29.119Z,100092.44
2023-07-17T22:55:58.131Z,100096.47
2023-07-17T22:58:27.215Z,100104.22
2023-07-17T23:00:57.838Z,100109.66
2023-07-17T23:03:26.834Z,100109.44
2023-07-17T23:05:55.902Z,100108.94
2023-07-17T23:08:24.882Z,100109.81
2023-07-17T23:10:54.038Z,100115.44
2023-07-17T23:13:23.164Z,100117.88
2023-07-17T23:15:52.292Z,100102.22
2023-07-17T23:18:22.862Z,100106.25
2023-07-17T23:20:51.942Z,100111.34
2023-07-17T23:23:21.891Z,100113.53
2023-07-17T23:25:51.715Z,100108.00
2023-07-17T23:28:20.759Z,100113.09
2023-07-17T23:30:49.765Z,100108.34
2023-07-17T23:33:18.815Z,100113.16
2023-07-17T23:35:49.165Z,100111.06
2023-07-17T23:38:18.180Z,100113.25
2023-07-17T23:40:47.273Z,100114.63
2023-07-17T23:43:16.317Z,100106.16
2023-07-17T23:45:45.366Z,100110.19
2023-07-17T23:48:14.834Z,100118.13
2023-07-17T23:50:43.916Z,100112.31
2023-07-17T23:53:14.435Z,100114.50
2023-07-17T23:55:43.427Z,100116.63
2023-07-17T23:58:13.072Z,100121.41
